Time;durP1;ratioP1;P1;durP2;ratioP2;P2;SDS_P1;SDS_P2;PMS_P1;PMS_P2;Temp;Humidity;BMP_temperature;BMP_pressure;BME280_temperature;BME280_humidity;BME280_pressure;Samples;Min_cycle;Max_cycle;Signal;HPM_P1;HPM_P2
2023/08/24 00:00:22;;;;;;;5.47;1.52;;;;;;;;;;5068275;28;20079;-89
2023/08/24 00:02:53;;;;;;;4.05;1.63;;;;;;;;;;5069760;28;20048;-89
2023/08/24 00:05:58;;;;;;;3.42;1.60;;;;;;;;;;5084330;28;20224;-89
2023/08/24 00:08:32;;;;;;;4.68;1.40;;;;;;;;;;5067059;28;20087;-88
2023/08/24 00:11:28;;;;;;;3.80;1.35;;;;;;;;;;5082829;28;20055;-88
2023/08/24 00:14:15;;;;;;;8.17;1.90;;;;;;;;;;5083377;28;20324;-89
2023/08/24 00:16:46;;;;;;;4.50;1.50;;;;;;;;;;5067015;28;20455;-89
2023/08/24 00:19:26;;;;;;;6.50;1.90;;;;;;;;;;5084097;28;20072;-89
2023/08/24 00:22:02;;;;;;;3.28;1.50;;;;;;;;;;5068910;28;20053;-88
2023/08/24 00:24:48;;;;;;;8.73;1.83;;;;;;;;;;5082844;28;20052;-88
2023/08/24 00:27:31;;;;;;;2.47;1.48;;;;;;;;;;5092973;28;20088;-88
2023/08/24 00:30:38;;;;;;;5.05;1.50;;;;;;;;;;5089104;28;20059;-89
2023/08/24 00:36:30;;;;;;;5.78;1.33;;;;;;;;;;5040362;28;20046;-88
2023/08/24 00:39:20;;;;;;;3.30;1.58;;;;;;;;;;5026300;28;20121;-88
2023/08/24 00:42:06;;;;;;;6.53;1.20;;;;;;;;;;5026201;28;20108;-89
2023/08/24 00:44:55;;;;;;;;;;;;;;;;;;;;;
2023/08/24 00:47:53;;;;;;;4.22;1.90;;;;;;;;;;5043407;28;20077;-90
2023/08/24 00:53:36;;;;;;;2.97;1.63;;;;;;;;;;5091468;28;20255;-88
2023/08/24 00:56:56;;;;;;;4.28;1.90;;;;;;;;;;5092328;28;20055;-89
2023/08/24 00:59:39;;;;;;;4.22;1.80;;;;;;;;;;5088529;28;20327;-88
2023/08/24 01:02:28;;;;;;;2.17;1.55;;;;;;;;;;5105353;28;20043;-88
2023/08/24 01:05:22;;;;;;;3.05;1.58;;;;;;;;;;5106970;28;20076;-88
2023/08/24 01:08:11;;;;;;;3.88;1.90;;;;;;;;;;5098171;28;20113;-88
2023/08/24 01:11:32;;;;;;;5.25;1.60;;;;;;;;;;5093515;28;20044;-87
2023/08/24 01:14:24;;;;;;;3.28;1.95;;;;;;;;;;5107248;28;20052;-87
2023/08/24 01:16:54;;;;;;;2.97;1.55;;;;;;;;;;5088292;28;20052;-86
2023/08/24 01:19:50;;;;;;;3.10;1.85;;;;;;;;;;5087590;28;20056;-87
2023/08/24 01:22:46;;;;;;;4.20;1.52;;;;;;;;;;5091342;28;20070;-87
2023/08/24 01:25:46;;;;;;;4.10;1.50;;;;;;;;;;5091498;28;20063;-87
2023/08/24 01:28:31;;;;;;;3.20;2.10;;;;;;;;;;5092328;28;20142;-86
2023/08/24 01:34:23;;;;;;;6.63;2.13;;;;;;;;;;5107707;28;20048;-87
2023/08/24 01:37:18;;;;;;;8.00;2.35;;;;;;;;;;5088838;28;20048;-86
2023/08/24 01:40:16;;;;;;;5.32;2.00;;;;;;;;;;5092616;28;20068;-86
2023/08/24 01:43:08;;;;;;;5.45;2.22;;;;;;;;;;5089276;28;20135;-86
2023/08/24 01:45:47;;;;;;;2.65;1.92;;;;;;;;;;5107175;28;20070;-86
2023/08/24 01:48:35;;;;;;;4.18;2.38;;;;;;;;;;5091279;28;20107;-86
2023/08/24 01:51:35;;;;;;;5.70;2.17;;;;;;;;;;5094878;28;20139;-86
2023/08/24 01:54:06;;;;;;;5.72;1.92;;;;;;;;;;5089440;28;20145;-86
2023/08/24 01:56:39;;;;;;;5.82;2.65;;;;;;;;;;5091578;28;20048;-86
2023/08/24 02:02:10;;;;;;;4.30;2.28;;;;;;;;;;5063988;28;20044;-86
2023/08/24 02:05:01;;;;;;;5.43;2.00;;;;;;;;;;5091352;28;20206;-86
2023/08/24 02:07:48;;;;;;;4.50;2.13;;;;;;;;;;5108406;28;20043;-86
2023/08/24 02:10:17;;;;;;;4.70;1.92;;;;;;;;;;5093024;28;20052;-86
2023/08/24 02:13:01;;;;;;;6.97;2.80;;;;;;;;;;5091375;28;20052;-86
2023/08/24 02:16:09;;;;;;;6.28;2.50;;;;;;;;;;5090622;28;20052;-86
2023/08/24 02:18:42;;;;;;;5.80;2.17;;;;;;;;;;5092406;28;20048;-85
2023/08/24 02:21:16;;;;;;;5.15;2.45;;;;;;;;;;5094695;28;20075;-86
2023/08/24 02:23:54;;;;;;;7.60;2.28;;;;;;;;;;5095982;28;20035;-86
2023/08/24 02:26:45;;;;;;;5.07;2.33;;;;;;;;;;5094951;28;20047;-86
2023/08/24 02:29:30;;;;;;;5.60;2.90;;;;;;;;;;5086456;28;20465;-85
2023/08/24 02:32:31;;;;;;;4.35;2.50;;;;;;;;;;5073646;28;20056;-85
2023/08/24 02:35:10;;;;;;;5.53;2.65;;;;;;;;;;5077505;28;20104;-85
2023/08/24 02:38:03;;;;;;;6.65;2.88;;;;;;;;;;5086175;28;20431;-86
2023/08/24 02:41:12;;;;;;;6.05;3.35;;;;;;;;;;5089777;28;20103;-87
2023/08/24 02:43:56;;;;;;;6.45;3.05;;;;;;;;;;5090709;28;20147;-86
2023/08/24 02:46:38;;;;;;;8.52;4.45;;;;;;;;;;5095814;28;20071;-87
2023/08/24 02:49:15;;;;;;;7.40;4.25;;;;;;;;;;5083262;28;20435;-88
2023/08/24 02:52:27;;;;;;;8.68;3.55;;;;;;;;;;5086757;28;20339;-88
2023/08/24 02:55:30;;;;;;;7.68;3.75;;;;;;;;;;5070868;28;20056;-87
2023/08/24 02:58:17;;;;;;;8.57;3.53;;;;;;;;;;5101143;28;20079;-87
2023/08/24 03:01:19;;;;;;;10.50;3.67;;;;;;;;;;5098868;28;20059;-88
2023/08/24 03:03:51;;;;;;;10.80;4.03;;;;;;;;;;5082078;28;20054;-87
2023/08/24 03:06:26;;;;;;;7.35;3.67;;;;;;;;;;5100097;28;20139;-86
2023/08/24 03:09:20;;;;;;;7.55;4.15;;;;;;;;;;5084349;28;20076;-86
2023/08/24 03:12:28;;;;;;;10.82;3.95;;;;;;;;;;5083015;28;20044;-87
2023/08/24 03:14:59;;;;;;;9.75;4.30;;;;;;;;;;5090480;28;20323;-87
2023/08/24 03:17:40;;;;;;;7.80;4.60;;;;;;;;;;5104804;28;20358;-88
2023/08/24 03:20:26;;;;;;;7.72;4.30;;;;;;;;;;5103026;28;20092;-86
2023/08/24 03:40:03;;;;;;;13.25;4.88;;;;;;;;;;5670148;22;20051;-89
2023/08/24 03:50:47;;;;;;;10.35;5.15;;;;;;;;;;5387953;22;20073;-89
2023/08/24 03:53:45;;;;;;;19.95;6.53;;;;;;;;;;5114743;28;20040;-88
2023/08/24 03:56:29;;;;;;;14.82;5.25;;;;;;;;;;5104166;28;20056;-90
2023/08/24 03:59:13;;;;;;;6.40;4.18;;;;;;;;;;5101715;28;20032;-90
2023/08/24 04:02:03;;;;;;;8.00;4.10;;;;;;;;;;5088617;28;20036;-85
2023/08/24 04:04:45;;;;;;;8.63;4.55;;;;;;;;;;5622688;22;20050;-87
2023/08/24 04:07:27;;;;;;;;;;;;;;;;;;;;;
2023/08/24 04:10:15;;;;;;;10.10;4.53;;;;;;;;;;5112906;28;20035;-89
2023/08/24 04:13:12;;;;;;;7.07;3.95;;;;;;;;;;5112314;28;20040;-88
2023/08/24 04:16:06;;;;;;;6.90;4.07;;;;;;;;;;5119405;28;20036;-88
2023/08/24 04:19:09;;;;;;;9.07;4.40;;;;;;;;;;5099059;28;20039;-88
2023/08/24 04:22:27;;;;;;;15.40;5.68;;;;;;;;;;5100759;28;20054;-88
2023/08/24 04:28:30;;;;;;;10.63;3.60;;;;;;;;;;5119443;28;19930;-87
2023/08/24 04:41:52;;;;;;;11.65;4.93;;;;;;;;;;5215036;22;20078;-88
2023/08/24 04:47:28;;;;;;;11.37;5.47;;;;;;;;;;6202312;22;21426;-89
2023/08/24 04:59:58;;;;;;;12.23;5.32;;;;;;;;;;5057435;28;20025;-89
2023/08/24 05:03:07;;;;;;;12.20;5.07;;;;;;;;;;5040838;28;20050;-87
2023/08/24 05:06:25;;;;;;;9.50;4.78;;;;;;;;;;4951128;28;20052;-87
2023/08/24 06:13:18;;;;;;;13.70;3.40;;;;;;;;;;3098438;26;20034;-89
2023/08/24 06:16:10;;;;;;;6.65;2.63;;;;;;;;;;5084662;22;20132;-88
2023/08/24 06:21:58;;;;;;;5.50;2.37;;;;;;;;;;5096257;23;20045;-85
2023/08/24 06:38:31;;;;;;;9.00;2.23;;;;;;;;;;5665704;23;20032;-88
2023/08/24 06:41:30;;;;;;;4.25;1.65;;;;;;;;;;5042209;28;20032;-88
2023/08/24 06:44:39;;;;;;;3.60;1.63;;;;;;;;;;5040702;28;20040;-88
2023/08/24 07:28:13;;;;;;;7.03;2.40;;;;;;;;;;3799299;22;20322;31
2023/08/24 07:48:01;;;;;;;7.55;1.67;;;;;;;;;;5626269;22;20079;-89
2023/08/24 09:50:23;;;;;;;;;;;;;;;;;;;;;
2023/08/24 10:00:34;;;;;;;7.82;2.67;;;;;;;;;;5037830;28;20126;-87
2023/08/24 12:53:41;;;;;;;3.25;1.70;;;;;;;;;;521443;26;20286;-88
2023/08/24 13:02:09;;;;;;;5.15;1.83;;;;;;;;;;5960782;22;20027;-89
2023/08/24 18:47:31;;;;;;;5.45;2.90;;;;;;;;;;4962469;28;20046;-84
2023/08/24 18:50:19;;;;;;;4.78;2.45;;;;;;;;;;4965805;28;20037;-89
2023/08/24 19:19:31;;;;;;;9.18;3.10;;;;;;;;;;5227444;22;20026;-89
2023/08/24 19:22:26;;;;;;;4.10;2.55;;;;;;;;;;5037876;28;20065;-88
2023/08/24 19:25:09;;;;;;;7.38;2.60;;;;;;;;;;5010578;28;20058;-88
2023/08/24 19:27:40;;;;;;;6.50;2.97;;;;;;;;;;5024692;28;20042;-89
2023/08/24 19:30:09;;;;;;;5.50;2.55;;;;;;;;;;5032540;28;20232;-89
2023/08/24 19:38:36;;;;;;;3.97;2.72;;;;;;;;;;5375188;22;20063;-88
2023/08/24 19:41:19;;;;;;;6.28;2.72;;;;;;;;;;5338006;22;20046;-87
2023/08/24 19:44:08;;;;;;;6.13;2.90;;;;;;;;;;5038357;28;20061;-89
2023/08/24 19:49:42;;;;;;;7.07;3.20;;;;;;;;;;5644468;22;20435;-88
2023/08/24 19:52:28;;;;;;;7.18;3.20;;;;;;;;;;5454840;22;20155;-87
2023/08/24 19:55:18;;;;;;;6.00;3.70;;;;;;;;;;5024002;28;20046;-86
2023/08/24 20:00:47;;;;;;;7.10;3.30;;;;;;;;;;5154221;22;20042;-88
2023/08/24 20:06:57;;;;;;;8.45;3.63;;;;;;;;;;5090470;22;20041;-88
2023/08/24 20:12:12;;;;;;;8.90;3.67;;;;;;;;;;5101386;22;20030;-86
2023/08/24 20:23:53;;;;;;;6.55;4.22;;;;;;;;;;5244524;22;19909;-87
2023/08/24 20:26:38;;;;;;;6.53;3.92;;;;;;;;;;5031608;28;20422;-88
2023/08/24 20:29:07;;;;;;;11.57;3.90;;;;;;;;;;5024119;28;20136;-88
2023/08/24 20:31:43;;;;;;;7.93;3.70;;;;;;;;;;5023759;28;20120;-88
2023/08/24 20:34:17;;;;;;;7.88;4.15;;;;;;;;;;5022126;28;20046;-89
2023/08/24 20:37:07;;;;;;;10.63;3.83;;;;;;;;;;4972354;28;20093;-88
2023/08/24 20:39:35;;;;;;;12.50;4.20;;;;;;;;;;5004474;28;20124;-89
2023/08/24 20:42:16;;;;;;;9.80;4.15;;;;;;;;;;5021066;28;20050;-89
2023/08/24 20:44:46;;;;;;;8.25;3.75;;;;;;;;;;5005592;28;20243;-89
2023/08/24 20:47:19;;;;;;;7.38;4.72;;;;;;;;;;5021574;28;20049;-88
2023/08/24 20:49:49;;;;;;;9.32;4.05;;;;;;;;;;5004802;28;20122;-88
2023/08/24 20:52:18;;;;;;;10.82;5.05;;;;;;;;;;5020516;28;20410;-88
2023/08/24 20:54:51;;;;;;;8.60;4.63;;;;;;;;;;5005917;28;20342;-88
2023/08/24 20:57:21;;;;;;;11.15;4.78;;;;;;;;;;5022298;28;20046;-88
2023/08/24 20:59:49;;;;;;;8.32;4.70;;;;;;;;;;5021467;28;20084;-88
2023/08/24 21:02:25;;;;;;;9.50;4.70;;;;;;;;;;5019877;28;20384;-88
2023/08/24 21:04:54;;;;;;;10.73;4.75;;;;;;;;;;5018810;28;20149;-87
2023/08/24 21:07:24;;;;;;;7.90;4.40;;;;;;;;;;5003697;28;20057;-88
2023/08/24 21:09:58;;;;;;;5.65;4.30;;;;;;;;;;5025307;28;20037;-88
2023/08/24 21:12:26;;;;;;;8.93;4.65;;;;;;;;;;5004694;28;20099;-89
2023/08/24 21:14:54;;;;;;;6.75;4.35;;;;;;;;;;5014517;28;20049;-88
2023/08/24 21:17:24;;;;;;;5.30;4.03;;;;;;;;;;5028107;28;20132;-88
2023/08/24 21:20:11;;;;;;;7.75;5.13;;;;;;;;;;5013343;28;20077;-88
2023/08/24 21:22:46;;;;;;;6.70;4.68;;;;;;;;;;5026696;28;20104;-87
2023/08/24 21:25:16;;;;;;;9.40;4.80;;;;;;;;;;5028584;28;20100;-88
2023/08/24 21:27:46;;;;;;;6.63;4.40;;;;;;;;;;5047497;28;20057;-88
2023/08/24 21:30:18;;;;;;;6.00;4.60;;;;;;;;;;5033504;28;20041;-88
2023/08/24 21:32:53;;;;;;;8.30;5.03;;;;;;;;;;5030689;28;20117;-88
2023/08/24 21:35:24;;;;;;;8.55;5.20;;;;;;;;;;5031331;28;20429;-88
2023/08/24 21:38:04;;;;;;;10.60;5.28;;;;;;;;;;5026734;28;20115;-88
2023/08/24 21:40:48;;;;;;;7.32;5.03;;;;;;;;;;5044762;28;20269;-88
2023/08/24 21:43:44;;;;;;;7.70;4.90;;;;;;;;;;5029849;28;20068;-87
2023/08/24 21:46:17;;;;;;;10.63;6.07;;;;;;;;;;5028704;28;20202;-88
2023/08/24 21:48:47;;;;;;;9.50;5.10;;;;;;;;;;5028240;28;20049;-88
2023/08/24 21:51:21;;;;;;;9.38;5.68;;;;;;;;;;5028031;28;20045;-88
2023/08/24 21:53:50;;;;;;;9.02;5.03;;;;;;;;;;5025893;28;20050;-88
2023/08/24 21:56:44;;;;;;;8.32;6.13;;;;;;;;;;5025810;28;20049;-88
2023/08/24 21:59:17;;;;;;;16.88;6.00;;;;;;;;;;5027383;28;20088;-87
2023/08/24 22:01:49;;;;;;;12.25;5.43;;;;;;;;;;5043560;28;20093;-89
2023/08/24 22:04:29;;;;;;;9.77;5.80;;;;;;;;;;5025719;28;20049;-88
2023/08/24 22:07:11;;;;;;;6.85;5.00;;;;;;;;;;5043131;28;20105;-89
2023/08/24 22:09:43;;;;;;;6.70;5.60;;;;;;;;;;5042763;28;20314;-89
2023/08/24 22:12:23;;;;;;;9.68;5.07;;;;;;;;;;5028511;28;20049;-88
2023/08/24 22:14:51;;;;;;;9.32;5.75;;;;;;;;;;5026170;28;20076;-88
2023/08/24 22:17:22;;;;;;;8.27;5.43;;;;;;;;;;5043879;28;20037;-88
2023/08/24 22:20:03;;;;;;;12.35;6.35;;;;;;;;;;5026785;28;20115;-88
2023/08/24 22:22:34;;;;;;;10.60;6.30;;;;;;;;;;5026913;28;20104;-88
2023/08/24 22:25:40;;;;;;;10.43;6.80;;;;;;;;;;5042189;28;20053;-89
2023/08/24 22:28:13;;;;;;;9.65;6.72;;;;;;;;;;5043221;28;20045;-89
2023/08/24 22:30:47;;;;;;;7.65;5.85;;;;;;;;;;5023899;28;20049;-88
2023/08/24 22:33:23;;;;;;;9.23;6.20;;;;;;;;;;5007610;28;20046;-87
2023/08/24 22:35:54;;;;;;;9.60;6.13;;;;;;;;;;5009224;28;20050;-88
2023/08/24 22:38:22;;;;;;;11.07;6.93;;;;;;;;;;5010263;28;20062;-88
2023/08/24 22:40:53;;;;;;;9.02;6.18;;;;;;;;;;5013577;28;20114;-88
2023/08/24 22:43:29;;;;;;;9.77;7.95;;;;;;;;;;5030470;28;20061;-88
2023/08/24 22:45:58;;;;;;;8.77;6.88;;;;;;;;;;5008442;28;20065;-89
2023/08/24 22:48:42;;;;;;;14.30;6.43;;;;;;;;;;5015585;28;20092;-89
2023/08/24 22:51:22;;;;;;;10.15;6.63;;;;;;;;;;5009894;28;20102;-86
2023/08/24 22:53:54;;;;;;;14.32;6.80;;;;;;;;;;5008788;28;20077;-87
2023/08/24 22:56:23;;;;;;;11.75;5.85;;;;;;;;;;5008135;28;20061;-86
2023/08/24 22:58:55;;;;;;;6.57;5.78;;;;;;;;;;5009455;28;20072;-87
2023/08/24 23:01:37;;;;;;;14.35;7.30;;;;;;;;;;5008344;28;20046;-87
2023/08/24 23:04:18;;;;;;;13.50;6.80;;;;;;;;;;5006353;28;20048;-87
2023/08/24 23:06:56;;;;;;;10.70;6.30;;;;;;;;;;5006932;28;20142;-86
2023/08/24 23:09:32;;;;;;;15.70;7.57;;;;;;;;;;5009105;28;20062;-86
2023/08/24 23:12:04;;;;;;;11.10;7.25;;;;;;;;;;5012713;28;20057;-86
2023/08/24 23:14:35;;;;;;;11.38;6.90;;;;;;;;;;5013082;28;20069;-86
2023/08/24 23:17:06;;;;;;;17.50;8.07;;;;;;;;;;5019138;28;20041;-87
2023/08/24 23:19:50;;;;;;;15.27;8.45;;;;;;;;;;5020196;28;20029;-87
2023/08/24 23:22:32;;;;;;;11.60;7.88;;;;;;;;;;5020416;28;20026;-86
2023/08/24 23:25:44;;;;;;;13.75;7.60;;;;;;;;;;5001021;28;20026;-87
2023/08/24 23:28:30;;;;;;;16.77;8.13;;;;;;;;;;4989032;28;20562;-86
2023/08/24 23:31:00;;;;;;;12.05;7.60;;;;;;;;;;4988613;28;20046;-86
2023/08/24 23:33:32;;;;;;;15.45;9.60;;;;;;;;;;4992148;28;20061;-86
2023/08/24 23:36:00;;;;;;;14.30;8.32;;;;;;;;;;4991024;28;20055;-86
2023/08/24 23:38:27;;;;;;;14.57;8.45;;;;;;;;;;4988314;28;20046;-86
2023/08/24 23:40:59;;;;;;;14.10;9.25;;;;;;;;;;4988990;28;20054;-86
2023/08/24 23:43:32;;;;;;;15.45;8.30;;;;;;;;;;4990259;28;20072;-86
2023/08/24 23:46:04;;;;;;;15.65;8.63;;;;;;;;;;4990122;28;20141;-86
2023/08/24 23:48:33;;;;;;;13.10;7.88;;;;;;;;;;5006211;28;20051;-87
2023/08/24 23:51:03;;;;;;;16.85;8.70;;;;;;;;;;4989563;28;20042;-86
2023/08/24 23:53:36;;;;;;;19.20;8.68;;;;;;;;;;4990925;28;20051;-86
2023/08/24 23:56:05;;;;;;;16.50;8.27;;;;;;;;;;4993445;28;20046;-85
2023/08/24 23:58:36;;;;;;;13.70;8.85;;;;;;;;;;4987598;28;20240;-86
